createdAt,value
2017-12-12T00:01:02.656Z,26.83
2017-12-12T00:02:08.554Z,28.60
2017-12-12T00:03:13.271Z,25.25
2017-12-12T00:04:17.656Z,27.37
2017-12-12T00:05:21.875Z,29.70
2017-12-12T00:06:26.229Z,27.40
2017-12-12T00:07:31.456Z,26.90
2017-12-12T00:08:35.831Z,25.62
2017-12-12T00:09:40.358Z,29.93
2017-12-12T00:10:44.585Z,26.10
2017-12-12T00:11:49.576Z,31.60
2017-12-12T00:12:53.764Z,26.02
2017-12-12T00:13:58.294Z,25.00
2017-12-12T00:15:02.551Z,30.65
2017-12-12T00:16:06.791Z,32.13
2017-12-12T00:17:11.014Z,34.30
2017-12-12T00:18:16.033Z,28.62
2017-12-12T00:19:20.531Z,29.10
2017-12-12T00:20:25.156Z,30.73
2017-12-12T00:21:29.576Z,35.85
2017-12-12T00:22:42.669Z,38.87
2017-12-12T00:23:47.066Z,34.67
2017-12-12T00:24:51.586Z,38.33
2017-12-12T00:25:55.969Z,33.70
2017-12-12T00:27:00.001Z,39.33
2017-12-12T00:28:04.013Z,39.53
2017-12-12T00:29:08.079Z,34.37
2017-12-12T00:30:12.208Z,36.40
2017-12-12T00:31:16.518Z,34.30
2017-12-12T00:32:21.005Z,35.08
2017-12-12T00:33:25.265Z,36.42
2017-12-12T00:34:30.143Z,39.40
2017-12-12T00:35:34.921Z,34.67
2017-12-12T00:36:39.823Z,39.33
2017-12-12T00:37:44.869Z,39.97
2017-12-12T00:38:49.805Z,39.58
2017-12-12T00:39:53.963Z,35.55
2017-12-12T00:40:58.251Z,44.42
2017-12-12T00:42:02.503Z,40.22
2017-12-12T00:43:07.525Z,39.75
2017-12-12T00:44:12.808Z,42.90
2017-12-12T00:45:17.515Z,42.75
2017-12-12T00:46:21.676Z,41.88
2017-12-12T00:47:26.626Z,40.28
2017-12-12T00:48:30.861Z,39.35
2017-12-12T00:49:35.063Z,39.85
2017-12-12T00:50:39.551Z,36.08
2017-12-12T00:51:43.822Z,36.55
2017-12-12T00:52:48.743Z,33.90
2017-12-12T00:53:53.725Z,40.72
2017-12-12T00:54:58.289Z,42.62
2017-12-12T00:56:02.599Z,43.95
2017-12-12T00:57:07.366Z,42.75
2017-12-12T00:58:11.451Z,44.05
2017-12-12T00:59:15.530Z,41.53
2017-12-12T01:00:19.548Z,40.15
2017-12-12T01:01:23.626Z,42.15
2017-12-12T01:02:28.181Z,38.55
2017-12-12T01:03:32.217Z,42.00
2017-12-12T01:04:36.376Z,40.10
2017-12-12T01:05:40.876Z,38.95
2017-12-12T01:06:44.857Z,40.67
2017-12-12T01:07:48.919Z,36.85
2017-12-12T01:08:54.984Z,39.65
2017-12-12T01:10:01.770Z,40.12
2017-12-12T01:11:05.894Z,36.78
2017-12-12T01:12:10.215Z,40.97
2017-12-12T01:13:14.327Z,37.10
2017-12-12T01:14:18.866Z,38.83
2017-12-12T01:15:23.962Z,41.83
2017-12-12T01:16:28.175Z,36.88
2017-12-12T01:17:32.593Z,37.78
2017-12-12T01:18:37.470Z,37.88
2017-12-12T01:19:43.693Z,39.47
2017-12-12T01:20:49.542Z,37.28
2017-12-12T01:21:53.906Z,40.63
2017-12-12T01:22:58.157Z,35.15
2017-12-12T01:24:04.229Z,35.05
2017-12-12T01:25:08.956Z,34.95
2017-12-12T01:26:14.440Z,36.75
2017-12-12T01:27:19.739Z,30.20
2017-12-12T01:28:23.927Z,33.60
2017-12-12T01:29:28.468Z,34.67
2017-12-12T01:30:33.270Z,37.65
2017-12-12T01:31:39.402Z,35.05
2017-12-12T01:32:44.363Z,34.55
2017-12-12T01:33:49.357Z,33.20
2017-12-12T01:34:53.594Z,30.40
2017-12-12T01:35:58.082Z,27.37
2017-12-12T01:37:03.958Z,24.73
2017-12-12T01:38:09.364Z,22.08
2017-12-12T01:39:14.115Z,23.25
2017-12-12T01:40:19.726Z,24.80
2017-12-12T01:41:23.962Z,24.45
2017-12-12T01:42:29.293Z,22.50
2017-12-12T01:43:34.442Z,21.37
2017-12-12T01:44:38.686Z,22.70
2017-12-12T01:45:42.994Z,25.10
2017-12-12T01:46:47.239Z,24.60
2017-12-12T01:47:51.361Z,24.75
2017-12-12T01:48:55.912Z,23.05
2017-12-12T01:50:00.044Z,23.75
2017-12-12T01:51:04.151Z,23.48
2017-12-12T01:52:08.423Z,23.25
2017-12-12T01:53:12.545Z,27.45
2017-12-12T01:54:17.035Z,24.17
2017-12-12T01:55:21.339Z,22.33
2017-12-12T01:56:25.645Z,22.30
2017-12-12T01:57:30.120Z,23.30
2017-12-12T01:58:34.909Z,23.00
2017-12-12T01:59:39.287Z,24.65
2017-12-12T02:00:44.098Z,26.25
2017-12-12T02:01:48.623Z,23.00
2017-12-12T02:02:53.160Z,22.67
2017-12-12T02:03:57.938Z,24.00
2017-12-12T02:05:02.954Z,24.37
2017-12-12T02:06:07.566Z,24.33
2017-12-12T02:07:18.190Z,22.17
2017-12-12T02:08:23.431Z,26.33
2017-12-12T02:09:27.962Z,23.80
2017-12-12T02:10:32.300Z,25.08
2017-12-12T02:11:37.365Z,21.33
2017-12-12T02:12:42.745Z,23.58
2017-12-12T02:13:49.160Z,23.70
2017-12-12T02:14:53.630Z,23.02
2017-12-12T02:15:57.950Z,20.83
2017-12-12T02:17:02.657Z,19.52
2017-12-12T02:18:07.185Z,21.73
2017-12-12T02:19:11.537Z,20.48
2017-12-12T02:20:15.903Z,20.17
2017-12-12T02:21:20.503Z,20.58
2017-12-12T02:22:25.110Z,18.10
2017-12-12T02:23:30.042Z,20.83
2017-12-12T02:24:34.357Z,20.20
2017-12-12T02:25:39.093Z,17.42
2017-12-12T02:26:43.486Z,20.08
2017-12-12T02:27:47.862Z,18.58
2017-12-12T02:28:52.385Z,18.10
2017-12-12T02:29:56.806Z,19.75
2017-12-12T02:31:01.552Z,22.62
2017-12-12T02:32:06.606Z,18.02
2017-12-12T02:33:10.793Z,18.90
2017-12-12T02:34:14.940Z,16.33
2017-12-12T02:35:19.311Z,18.60
2017-12-12T02:36:23.695Z,17.35
2017-12-12T02:37:28.733Z,10.98
2017-12-12T02:38:33.290Z,12.85
2017-12-12T02:39:37.795Z,14.20
2017-12-12T02:40:42.313Z,16.05
2017-12-12T02:41:46.465Z,14.18
2017-12-12T02:42:51.740Z,14.40
2017-12-12T02:43:56.059Z,14.75
2017-12-12T02:45:00.694Z,13.40
2017-12-12T02:46:05.012Z,16.23
2017-12-12T02:47:09.373Z,16.65
2017-12-12T02:48:14.303Z,17.80
2017-12-12T02:49:18.614Z,17.08
2017-12-12T02:50:23.126Z,16.05
2017-12-12T02:51:27.684Z,14.30
2017-12-12T02:52:32.966Z,15.23
2017-12-12T02:53:37.470Z,12.80
2017-12-12T02:54:41.999Z,14.70
2017-12-12T02:55:47.033Z,12.55
2017-12-12T02:56:53.676Z,15.55
2017-12-12T02:57:58.594Z,17.17
2017-12-12T02:59:04.964Z,15.52
2017-12-12T03:00:09.870Z,14.73
2017-12-12T03:01:14.364Z,13.63
2017-12-12T03:02:18.987Z,14.13
2017-12-12T03:03:23.437Z,13.77
2017-12-12T03:04:27.774Z,12.05
2017-12-12T03:05:32.740Z,14.30
2017-12-12T03:06:36.953Z,14.00
2017-12-12T03:07:41.330Z,15.90
2017-12-12T03:08:45.760Z,12.20
2017-12-12T03:09:50.347Z,15.07
2017-12-12T03:10:55.157Z,16.30
2017-12-12T03:12:00.127Z,12.70
2017-12-12T03:13:04.549Z,15.05
2017-12-12T03:14:10.871Z,14.65
2017-12-12T03:15:15.432Z,11.70
2017-12-12T03:16:20.927Z,15.35
2017-12-12T03:17:25.446Z,17.33
2017-12-12T03:18:30.286Z,15.52
2017-12-12T03:19:35.201Z,11.57
2017-12-12T03:20:40.055Z,18.92
2017-12-12T03:21:44.363Z,16.98
2017-12-12T03:22:50.325Z,13.20
2017-12-12T03:23:54.762Z,11.18
2017-12-12T03:24:59.130Z,14.80
2017-12-12T03:26:04.314Z,12.70
2017-12-12T03:27:08.655Z,14.87
2017-12-12T03:28:13.576Z,15.88
2017-12-12T03:29:18.837Z,10.40
2017-12-12T03:30:22.965Z,13.50
2017-12-12T03:31:27.284Z,13.18
2017-12-12T03:32:32.393Z,13.40
2017-12-12T03:33:36.718Z,15.20
2017-12-12T03:34:41.010Z,12.50
2017-12-12T03:35:45.719Z,13.32
2017-12-12T03:36:50.007Z,12.43
2017-12-12T03:37:54.378Z,15.03
2017-12-12T03:38:58.657Z,13.62
2017-12-12T03:40:03.856Z,15.65
2017-12-12T03:41:08.408Z,14.02
2017-12-12T03:42:13.457Z,12.30
2017-12-12T03:43:18.577Z,11.93
2017-12-12T03:44:24.040Z,13.68
2017-12-12T03:45:29.422Z,16.35
2017-12-12T03:46:33.983Z,19.85
2017-12-12T03:47:38.964Z,11.82
2017-12-12T03:48:43.299Z,12.35
2017-12-12T03:49:48.681Z,14.93
2017-12-12T03:50:52.878Z,15.07
2017-12-12T03:51:57.159Z,16.27
2017-12-12T03:53:01.419Z,15.00
2017-12-12T03:54:05.851Z,13.05
2017-12-12T03:55:10.806Z,13.82
2017-12-12T03:56:15.045Z,14.38
2017-12-12T03:57:19.566Z,14.25
2017-12-12T03:58:23.997Z,14.95
2017-12-12T03:59:29.179Z,17.30
2017-12-12T04:00:33.967Z,18.15
2017-12-12T04:01:38.855Z,13.27
2017-12-12T04:02:43.522Z,17.85
2017-12-12T04:03:48.326Z,16.50
2017-12-12T04:04:52.649Z,20.55
2017-12-12T04:05:57.318Z,18.27
2017-12-12T04:07:02.954Z,15.35
2017-12-12T04:08:07.543Z,16.20
2017-12-12T04:09:11.849Z,17.92
2017-12-12T04:10:16.163Z,21.77
2017-12-12T04:11:20.400Z,15.75
2017-12-12T04:12:25.915Z,17.70
2017-12-12T04:13:32.136Z,17.50
2017-12-12T04:14:36.523Z,15.15
2017-12-12T04:15:41.382Z,16.70
2017-12-12T04:16:45.873Z,17.05
2017-12-12T04:17:50.339Z,17.35
2017-12-12T04:18:55.823Z,21.85
2017-12-12T04:20:00.415Z,18.60
2017-12-12T04:21:05.546Z,20.20
2017-12-12T04:22:09.989Z,16.23
2017-12-12T04:23:15.541Z,22.00
2017-12-12T04:24:20.356Z,23.45
2017-12-12T04:25:24.799Z,20.80
2017-12-12T04:26:29.223Z,18.67
2017-12-12T04:27:34.640Z,21.15
2017-12-12T04:28:39.368Z,23.58
2017-12-12T04:29:43.746Z,23.27
2017-12-12T04:30:48.735Z,21.80
2017-12-12T04:31:53.292Z,25.35
2017-12-12T04:32:57.838Z,20.42
2017-12-12T04:34:02.396Z,22.90
2017-12-12T04:35:06.687Z,25.48
2017-12-12T04:36:11.387Z,23.08
2017-12-12T04:37:15.899Z,20.80
2017-12-12T04:38:20.061Z,28.20
2017-12-12T04:39:25.332Z,25.17
2017-12-12T04:40:29.463Z,23.87
2017-12-12T04:41:33.561Z,23.05
2017-12-12T04:42:38.864Z,22.20
2017-12-12T04:43:43.130Z,33.38
2017-12-12T04:44:48.281Z,25.52
2017-12-12T04:45:52.641Z,21.65
2017-12-12T04:46:56.983Z,18.40
2017-12-12T04:48:01.290Z,23.83
2017-12-12T04:49:06.274Z,23.87
2017-12-12T04:50:10.589Z,17.30
2017-12-12T04:51:15.150Z,23.02
2017-12-12T04:52:19.833Z,18.65
2017-12-12T04:53:24.853Z,23.45
2017-12-12T04:54:30.727Z,21.77
2017-12-12T04:55:35.461Z,19.50
2017-12-12T04:56:39.788Z,22.02
2017-12-12T04:57:44.508Z,27.05
2017-12-12T04:58:49.015Z,24.50
2017-12-12T04:59:53.543Z,22.30
2017-12-12T05:00:58.541Z,23.25
2017-12-12T05:02:02.953Z,20.85
2017-12-12T05:03:07.626Z,21.52
2017-12-12T05:04:12.128Z,16.83
2017-12-12T05:05:16.474Z,16.77
2017-12-12T05:06:21.089Z,21.60
2017-12-12T05:07:25.519Z,17.48
2017-12-12T05:08:30.000Z,17.35
2017-12-12T05:09:34.401Z,22.37
2017-12-12T05:10:38.565Z,19.87
2017-12-12T05:11:42.658Z,18.87
2017-12-12T05:12:47.268Z,20.20
2017-12-12T05:13:51.503Z,21.20
2017-12-12T05:14:56.537Z,25.90
2017-12-12T05:16:01.443Z,23.25
2017-12-12T05:17:05.491Z,17.85
2017-12-12T05:18:09.602Z,24.05
2017-12-12T05:19:14.515Z,17.40
2017-12-12T05:20:18.901Z,15.57
2017-12-12T05:21:23.207Z,22.08
2017-12-12T05:22:27.546Z,20.50
2017-12-12T05:23:31.838Z,19.05
2017-12-12T05:24:36.585Z,25.08
2017-12-12T05:25:41.288Z,22.42
2017-12-12T05:26:45.330Z,18.33
2017-12-12T05:27:49.454Z,25.45
2017-12-12T05:28:53.597Z,16.93
2017-12-12T05:29:58.013Z,18.92
2017-12-12T05:31:02.759Z,21.00
2017-12-12T05:32:07.252Z,21.67
2017-12-12T05:33:11.351Z,22.87
2017-12-12T05:34:15.475Z,21.30
2017-12-12T05:35:19.776Z,22.52
2017-12-12T05:36:24.003Z,19.87
2017-12-12T05:37:29.510Z,17.98
2017-12-12T05:38:33.951Z,17.45
2017-12-12T05:39:39.108Z,24.55
2017-12-12T05:40:43.539Z,27.05
2017-12-12T05:41:47.848Z,19.50
2017-12-12T05:42:52.170Z,20.65
2017-12-12T05:43:56.415Z,14.52
2017-12-12T05:45:01.576Z,30.12
2017-12-12T05:46:05.650Z,37.20
2017-12-12T05:47:09.790Z,20.20
2017-12-12T05:48:14.251Z,20.40
2017-12-12T05:49:19.322Z,16.55
2017-12-12T05:50:23.562Z,19.60
2017-12-12T05:51:27.933Z,20.92
2017-12-12T05:52:32.272Z,18.77
2017-12-12T05:53:37.326Z,15.88
2017-12-12T05:54:42.404Z,18.65
2017-12-12T05:55:46.850Z,18.33
2017-12-12T05:56:52.003Z,18.50
2017-12-12T05:57:56.250Z,18.55
2017-12-12T05:59:00.492Z,23.67
2017-12-12T06:00:05.591Z,18.02
2017-12-12T06:01:10.167Z,20.23
2017-12-12T06:02:14.477Z,14.52
2017-12-12T06:03:18.715Z,21.23
2017-12-12T06:04:22.895Z,15.43
2017-12-12T06:05:27.168Z,14.27
2017-12-12T06:06:31.374Z,17.50
2017-12-12T06:07:36.158Z,21.00
2017-12-12T06:08:40.436Z,28.87
2017-12-12T06:09:44.722Z,22.70
2017-12-12T06:10:48.961Z,22.52
2017-12-12T06:11:53.317Z,22.00
2017-12-12T06:12:57.659Z,20.20
2017-12-12T06:14:02.006Z,19.05
2017-12-12T06:15:06.403Z,18.35
2017-12-12T06:16:10.518Z,26.17
2017-12-12T06:17:14.606Z,21.05
2017-12-12T06:18:18.812Z,20.85
2017-12-12T06:19:24.051Z,21.00
2017-12-12T06:20:28.296Z,20.30
2017-12-12T06:21:32.682Z,27.60
2017-12-12T06:22:36.834Z,23.10
2017-12-12T06:23:41.151Z,19.30
2017-12-12T06:24:45.569Z,20.85
2017-12-12T06:25:50.401Z,21.27
2017-12-12T06:26:54.716Z,19.40
2017-12-12T06:27:59.083Z,20.80
2017-12-12T06:29:03.515Z,21.98
2017-12-12T06:30:09.081Z,21.50
2017-12-12T06:31:14.249Z,24.17
2017-12-12T06:32:18.558Z,22.37
2017-12-12T06:33:22.868Z,26.05
2017-12-12T06:34:27.257Z,34.83
2017-12-12T06:35:31.526Z,48.10
2017-12-12T06:36:36.764Z,29.30
2017-12-12T06:37:41.874Z,18.23
2017-12-12T06:38:46.053Z,23.38
2017-12-12T06:39:50.260Z,19.10
2017-12-12T06:40:54.631Z,20.90
2017-12-12T06:41:58.977Z,24.05
2017-12-12T06:43:03.255Z,17.60
2017-12-12T06:44:07.518Z,18.85
2017-12-12T06:45:12.204Z,21.00
2017-12-12T06:46:16.321Z,25.02
2017-12-12T06:47:20.491Z,20.08
2017-12-12T06:48:24.615Z,17.90
2017-12-12T06:49:28.898Z,17.92
2017-12-12T06:50:33.470Z,19.70
2017-12-12T06:51:38.302Z,21.15
2017-12-12T06:52:43.170Z,22.95
2017-12-12T06:53:47.342Z,20.62
2017-12-12T06:54:51.690Z,24.10
2017-12-12T06:55:56.039Z,21.83
2017-12-12T06:57:01.167Z,23.00
2017-12-12T06:58:06.210Z,28.48
2017-12-12T06:59:10.511Z,27.13
2017-12-12T07:00:14.936Z,25.88
2017-12-12T07:01:19.231Z,15.00
2017-12-12T07:02:23.578Z,17.17
2017-12-12T07:03:27.784Z,21.52
2017-12-12T07:04:32.038Z,18.45
2017-12-12T07:05:36.193Z,19.73
2017-12-12T07:06:40.350Z,21.10
2017-12-12T07:07:45.288Z,21.20
2017-12-12T07:08:50.137Z,22.13
2017-12-12T07:09:54.352Z,19.52
2017-12-12T07:10:58.597Z,20.10
2017-12-12T07:12:02.954Z,20.60
2017-12-12T07:13:07.045Z,15.43
2017-12-12T07:14:11.548Z,22.10
2017-12-12T07:15:15.879Z,18.08
2017-12-12T07:16:19.966Z,19.27
2017-12-12T07:17:24.626Z,16.95
2017-12-12T07:18:30.381Z,18.05
2017-12-12T07:19:34.586Z,18.52
2017-12-12T07:20:39.562Z,16.12
2017-12-12T07:21:43.651Z,18.20
2017-12-12T07:22:47.746Z,21.60
2017-12-12T07:23:51.729Z,17.73
2017-12-12T07:25:33.904Z,12.13
2017-12-12T07:26:38.910Z,14.38
2017-12-12T07:27:43.857Z,19.58
2017-12-12T07:28:48.737Z,22.55
2017-12-12T07:29:52.818Z,24.15
2017-12-12T07:30:57.180Z,18.90
2017-12-12T07:32:01.738Z,19.12
2017-12-12T07:33:05.961Z,19.60
2017-12-12T07:34:10.182Z,21.55
2017-12-12T07:35:14.229Z,21.12
2017-12-12T07:36:18.341Z,22.20
2017-12-12T07:37:22.754Z,19.48
2017-12-12T07:38:27.097Z,19.83
2017-12-12T07:39:31.167Z,19.05
2017-12-12T07:40:35.178Z,20.52
2017-12-12T07:41:39.232Z,15.30
2017-12-12T07:42:44.165Z,23.45
2017-12-12T07:43:49.024Z,18.80
2017-12-12T07:44:53.117Z,19.33
2017-12-12T07:45:57.153Z,18.37
2017-12-12T07:47:01.189Z,16.70
2017-12-12T07:48:05.508Z,18.08
2017-12-12T07:49:09.550Z,21.30
2017-12-12T07:50:14.042Z,21.08
2017-12-12T07:51:18.100Z,24.15
2017-12-12T07:52:22.975Z,20.23
2017-12-12T07:53:27.048Z,23.50
2017-12-12T07:54:31.157Z,16.55
2017-12-12T07:55:35.202Z,15.75
2017-12-12T07:56:39.662Z,16.40
2017-12-12T07:57:44.126Z,17.15
2017-12-12T07:58:49.145Z,19.05
2017-12-12T07:59:53.291Z,16.58
2017-12-12T08:00:57.374Z,18.20
2017-12-12T08:02:02.192Z,19.00
2017-12-12T08:03:07.020Z,14.52
2017-12-12T08:04:11.139Z,19.50
2017-12-12T08:05:15.316Z,15.77
2017-12-12T08:06:20.265Z,20.40
2017-12-12T08:07:24.402Z,19.97
2017-12-12T08:08:28.769Z,14.13
2017-12-12T08:09:32.913Z,14.48
2017-12-12T08:10:37.006Z,21.08
2017-12-12T08:11:41.101Z,13.38
2017-12-12T08:12:46.385Z,12.95
2017-12-12T08:13:51.439Z,18.80
2017-12-12T08:14:55.827Z,18.40
2017-12-12T08:15:59.954Z,14.07
2017-12-12T08:17:03.988Z,13.40
2017-12-12T08:18:08.222Z,16.20
2017-12-12T08:19:12.342Z,14.30
2017-12-12T08:20:16.421Z,15.80
2017-12-12T08:21:20.644Z,12.13
2017-12-12T08:22:25.535Z,14.57
2017-12-12T08:23:29.529Z,18.58
2017-12-12T08:24:33.771Z,12.98
2017-12-12T08:25:38.513Z,13.82
2017-12-12T08:26:42.786Z,17.65
2017-12-12T08:27:47.780Z,15.18
2017-12-12T08:28:51.981Z,13.68
2017-12-12T08:29:56.144Z,21.70
2017-12-12T08:31:00.327Z,15.10
2017-12-12T08:32:04.623Z,21.12
2017-12-12T08:33:09.653Z,12.35
2017-12-12T08:34:14.933Z,14.82
2017-12-12T08:35:19.158Z,11.77
2017-12-12T08:36:23.227Z,12.80
2017-12-12T08:37:27.551Z,17.12
2017-12-12T08:38:31.599Z,17.25
2017-12-12T08:39:36.746Z,12.40
2017-12-12T08:40:40.818Z,12.80
2017-12-12T08:41:45.670Z,13.35
2017-12-12T08:42:49.760Z,13.13
2017-12-12T08:43:54.053Z,14.30
2017-12-12T08:44:58.216Z,14.07
2017-12-12T08:46:02.462Z,14.50
2017-12-12T08:47:07.416Z,17.30
2017-12-12T08:48:11.658Z,15.43
2017-12-12T08:49:16.771Z,15.77
2017-12-12T08:50:20.956Z,11.57
2017-12-12T08:51:25.061Z,13.82
2017-12-12T08:52:29.385Z,18.05
2017-12-12T08:53:33.562Z,10.10
2017-12-12T08:54:37.605Z,12.77
2017-12-12T08:55:41.631Z,12.60
2017-12-12T08:56:46.406Z,10.90
2017-12-12T08:57:50.552Z,15.68
2017-12-12T08:58:55.404Z,14.70
2017-12-12T08:59:59.452Z,13.25
2017-12-12T09:01:03.549Z,13.88
2017-12-12T09:02:07.665Z,12.52
2017-12-12T09:03:11.753Z,12.85
2017-12-12T09:04:15.805Z,9.50
2017-12-12T09:05:19.781Z,19.92
2017-12-12T09:06:24.525Z,15.63
2017-12-12T09:07:28.630Z,15.18
2017-12-12T09:08:32.662Z,16.12
2017-12-12T09:09:36.842Z,13.38
2017-12-12T09:10:40.895Z,11.02
2017-12-12T09:11:45.770Z,15.35
2017-12-12T09:12:49.828Z,12.37
2017-12-12T09:13:54.698Z,13.20
2017-12-12T09:14:59.072Z,11.82
2017-12-12T09:16:03.170Z,14.93
2017-12-12T09:17:07.949Z,11.25
2017-12-12T09:18:12.025Z,14.35
2017-12-12T09:19:16.162Z,14.63
2017-12-12T09:20:20.209Z,17.52
2017-12-12T09:21:24.565Z,20.62
2017-12-12T09:22:28.598Z,15.38
2017-12-12T09:23:33.395Z,14.73
2017-12-12T09:24:38.211Z,11.43
2017-12-12T09:25:42.478Z,17.37
2017-12-12T09:26:46.590Z,10.30
2017-12-12T09:27:50.793Z,8.85
2017-12-12T09:28:55.043Z,11.88
2017-12-12T09:29:59.994Z,8.37
2017-12-12T09:31:04.181Z,22.80
2017-12-12T09:32:09.161Z,41.13
2017-12-12T09:33:13.712Z,14.35
2017-12-12T09:34:18.682Z,11.95
2017-12-12T09:35:22.955Z,11.10
2017-12-12T09:36:27.002Z,8.45
2017-12-12T09:37:31.148Z,12.13
2017-12-12T09:38:35.683Z,9.80
2017-12-12T09:39:39.799Z,12.52
2017-12-12T09:40:43.884Z,12.63
2017-12-12T09:41:48.136Z,15.95
2017-12-12T09:42:52.225Z,15.25
2017-12-12T09:43:56.318Z,12.60
2017-12-12T09:45:00.411Z,13.95
2017-12-12T09:46:04.747Z,9.10
2017-12-12T09:47:08.964Z,10.85
2017-12-12T09:48:13.251Z,12.43
2017-12-12T09:49:17.812Z,11.18
2017-12-12T09:50:22.848Z,8.07
2017-12-12T09:51:27.111Z,12.25
2017-12-12T09:52:31.345Z,37.42
2017-12-12T09:53:36.342Z,18.33
2017-12-12T09:54:40.873Z,9.95
2017-12-12T09:55:45.967Z,13.93
2017-12-12T09:56:50.086Z,8.70
2017-12-12T09:57:54.950Z,14.82
2017-12-12T09:58:59.135Z,14.02
2017-12-12T10:00:04.580Z,10.80
2017-12-12T10:01:08.689Z,14.90
2017-12-12T10:02:12.775Z,9.55
2017-12-12T10:03:17.623Z,26.12
2017-12-12T10:04:21.839Z,26.62
2017-12-12T10:05:28.287Z,8.77
2017-12-12T10:06:32.498Z,9.80
2017-12-12T10:07:36.781Z,12.60
2017-12-12T10:08:41.063Z,7.78
2017-12-12T10:09:46.341Z,8.88
2017-12-12T10:10:50.654Z,8.90
2017-12-12T10:11:55.037Z,10.88
2017-12-12T10:12:59.160Z,9.95
2017-12-12T10:14:03.456Z,8.63
2017-12-12T10:15:07.627Z,14.85
2017-12-12T10:16:12.534Z,7.63
2017-12-12T10:17:16.682Z,13.80
2017-12-12T10:18:20.864Z,11.30
2017-12-12T10:19:25.764Z,11.57
2017-12-12T10:20:29.841Z,11.52
2017-12-12T10:21:33.873Z,9.88
2017-12-12T10:22:38.713Z,91.60
2017-12-12T10:23:43.076Z,23.80
2017-12-12T10:24:47.139Z,15.05
2017-12-12T10:25:51.272Z,15.65
2017-12-12T10:26:55.348Z,16.92
2017-12-12T10:27:59.512Z,22.58
2017-12-12T10:29:04.313Z,25.05
2017-12-12T10:30:08.767Z,14.60
2017-12-12T10:31:12.934Z,11.95
2017-12-12T10:32:17.136Z,16.40
2017-12-12T10:33:21.159Z,17.40
2017-12-12T10:35:54.851Z,9.85
2017-12-12T10:36:59.901Z,18.60
2017-12-12T10:38:04.546Z,11.80
2017-12-12T10:39:08.793Z,13.87
2017-12-12T10:40:13.833Z,18.37
2017-12-12T10:41:19.079Z,11.80
2017-12-12T10:42:23.210Z,14.38
2017-12-12T10:43:27.798Z,11.45
2017-12-12T10:44:32.207Z,12.98
2017-12-12T10:45:36.854Z,13.50
2017-12-12T10:46:41.254Z,9.85
2017-12-12T10:47:45.852Z,11.70
2017-12-12T10:48:50.398Z,19.17
2017-12-12T10:49:55.050Z,31.63
2017-12-12T10:50:59.454Z,34.17
2017-12-12T10:52:05.492Z,77.62
2017-12-12T10:53:10.752Z,34.13
2017-12-12T10:54:15.247Z,37.45
2017-12-12T10:55:20.631Z,35.65
2017-12-12T10:56:25.018Z,27.92
2017-12-12T10:57:29.437Z,17.85
2017-12-12T10:58:33.825Z,19.12
2017-12-12T10:59:38.635Z,19.65
2017-12-12T11:00:42.884Z,20.80
2017-12-12T11:01:47.167Z,12.05
2017-12-12T11:02:52.104Z,13.60
2017-12-12T11:03:56.178Z,11.00
2017-12-12T11:05:00.589Z,9.60
2017-12-12T11:06:04.725Z,14.32
2017-12-12T11:07:09.176Z,16.12
2017-12-12T11:08:14.094Z,10.73
2017-12-12T11:09:19.322Z,110.85
2017-12-12T11:10:24.351Z,42.78
2017-12-12T11:11:29.395Z,13.20
2017-12-12T11:12:33.466Z,12.32
2017-12-12T11:13:37.717Z,14.55
2017-12-12T11:14:41.735Z,13.52
2017-12-12T11:15:45.757Z,15.60
2017-12-12T11:16:49.908Z,13.52
2017-12-12T11:17:54.188Z,14.15
2017-12-12T11:18:58.330Z,24.30
2017-12-12T11:20:02.493Z,50.95
2017-12-12T11:21:06.843Z,29.33
2017-12-12T11:22:11.194Z,14.50
2017-12-12T11:23:15.481Z,19.95
2017-12-12T11:24:19.756Z,19.08
2017-12-12T11:25:24.141Z,14.77
2017-12-12T11:26:30.933Z,15.10
2017-12-12T11:27:35.569Z,15.05
2017-12-12T11:28:39.990Z,14.60
2017-12-12T11:29:44.264Z,13.48
2017-12-12T11:30:48.565Z,12.45
2017-12-12T11:31:53.493Z,21.35
2017-12-12T11:32:57.654Z,13.13
2017-12-12T11:34:01.859Z,14.07
2017-12-12T11:35:05.976Z,13.05
2017-12-12T11:36:10.962Z,13.73
2017-12-12T11:37:15.237Z,9.93
2017-12-12T11:38:19.365Z,15.57
2017-12-12T11:39:23.409Z,10.50
2017-12-12T11:40:28.675Z,17.73
2017-12-12T11:41:32.804Z,15.40
2017-12-12T11:42:37.054Z,8.98
2017-12-12T11:43:42.119Z,12.73
2017-12-12T11:44:46.295Z,12.40
2017-12-12T11:45:50.553Z,13.98
2017-12-12T11:46:55.016Z,9.60
2017-12-12T11:47:59.338Z,11.33
2017-12-12T11:49:03.687Z,10.88
2017-12-12T11:50:08.082Z,8.75
2017-12-12T11:51:12.415Z,14.50
2017-12-12T11:52:16.722Z,7.40
2017-12-12T11:53:21.078Z,9.95
2017-12-12T11:54:25.369Z,10.32
2017-12-12T11:55:29.806Z,11.05
2017-12-12T11:56:34.237Z,11.23
2017-12-12T11:57:39.378Z,10.65
2017-12-12T11:58:43.837Z,13.52
2017-12-12T11:59:48.208Z,10.68
2017-12-12T12:00:52.390Z,9.73
2017-12-12T12:01:56.863Z,8.40
2017-12-12T12:03:01.405Z,7.43
2017-12-12T12:04:05.613Z,7.75
2017-12-12T12:05:10.347Z,10.88
2017-12-12T12:06:14.690Z,6.97
2017-12-12T12:07:18.949Z,7.07
2017-12-12T12:08:23.267Z,7.85
2017-12-12T12:09:27.334Z,7.40
2017-12-12T12:10:31.774Z,7.78
2017-12-12T12:11:35.886Z,11.57
2017-12-12T12:12:40.105Z,9.57
2017-12-12T12:13:44.352Z,7.10
2017-12-12T12:14:48.519Z,7.68
2017-12-12T12:15:53.358Z,12.00
2017-12-12T12:16:57.828Z,8.80
2017-12-12T12:18:03.108Z,8.63
2017-12-12T12:19:07.493Z,7.72
2017-12-12T12:20:11.768Z,9.70
2017-12-12T12:21:16.033Z,6.93
2017-12-12T12:22:20.404Z,7.28
2017-12-12T12:23:25.691Z,8.40
2017-12-12T12:24:30.064Z,6.45
2017-12-12T12:25:34.408Z,8.40
2017-12-12T12:26:38.797Z,8.52
2017-12-12T12:27:43.169Z,9.20
2017-12-12T12:28:48.739Z,11.20
2017-12-12T12:29:52.973Z,8.32
2017-12-12T12:30:57.434Z,8.38
2017-12-12T12:33:19.034Z,7.07
2017-12-12T12:34:24.030Z,6.50
2017-12-12T12:35:28.480Z,7.40
2017-12-12T12:36:33.406Z,9.35
2017-12-12T12:37:37.619Z,8.75
2017-12-12T12:38:42.091Z,5.28
2017-12-12T12:39:46.349Z,6.45
2017-12-12T12:40:50.658Z,6.25
2017-12-12T12:41:54.778Z,6.32
2017-12-12T12:42:59.018Z,5.57
2017-12-12T12:44:03.139Z,6.50
2017-12-12T12:45:08.298Z,8.25
2017-12-12T12:46:12.601Z,9.27
2017-12-12T12:47:17.186Z,17.77
2017-12-12T12:48:22.107Z,12.68
2017-12-12T12:49:27.106Z,15.90
2017-12-12T12:50:31.440Z,7.97
2017-12-12T12:51:36.463Z,7.10
2017-12-12T12:52:41.689Z,7.00
2017-12-12T12:53:46.679Z,5.10
2017-12-12T12:54:50.845Z,5.18
2017-12-12T12:55:54.921Z,5.37
2017-12-12T12:57:00.167Z,6.15
2017-12-12T12:58:04.405Z,7.95
2017-12-12T12:59:08.565Z,10.98
2017-12-12T13:00:17.740Z,5.20
2017-12-12T13:01:22.055Z,5.70
2017-12-12T13:02:26.322Z,6.65
2017-12-12T13:03:30.432Z,4.32
2017-12-12T13:04:34.516Z,5.00
2017-12-12T13:05:38.566Z,3.50
2017-12-12T13:06:42.643Z,5.87
2017-12-12T13:07:46.822Z,4.20
2017-12-12T13:08:50.960Z,3.92
2017-12-12T13:09:55.882Z,3.53
2017-12-12T13:11:00.275Z,2.60
2017-12-12T13:12:04.358Z,3.33
2017-12-12T13:13:08.808Z,3.37
2017-12-12T13:14:12.873Z,3.30
2017-12-12T13:15:17.085Z,4.20
2017-12-12T13:16:21.338Z,2.60
2017-12-12T13:17:26.087Z,6.37
2017-12-12T13:18:31.054Z,3.03
2017-12-12T13:19:35.494Z,2.97
2017-12-12T13:20:39.704Z,7.65
2017-12-12T13:21:44.904Z,3.28
2017-12-12T13:22:49.261Z,2.50
2017-12-12T13:23:53.748Z,2.55
2017-12-12T13:24:58.185Z,2.95
2017-12-12T13:26:02.338Z,2.72
2017-12-12T13:27:06.450Z,2.40
2017-12-12T13:28:10.724Z,3.20
2017-12-12T13:29:15.617Z,2.40
2017-12-12T13:30:19.947Z,2.10
2017-12-12T13:31:24.318Z,2.10
2017-12-12T13:32:29.386Z,2.22
2017-12-12T13:33:33.964Z,2.03
2017-12-12T13:34:38.359Z,2.10
2017-12-12T13:35:44.116Z,4.55
2017-12-12T13:36:49.120Z,2.28
2017-12-12T13:37:53.382Z,2.40
2017-12-12T13:38:57.512Z,2.47
2017-12-12T13:40:01.635Z,1.90
2017-12-12T13:41:06.582Z,2.45
2017-12-12T13:42:11.234Z,3.45
2017-12-12T13:43:15.486Z,3.53
2017-12-12T13:44:21.159Z,3.25
2017-12-12T13:45:47.995Z,2.45
2017-12-12T13:46:52.510Z,3.75
2017-12-12T13:47:57.256Z,3.92
2017-12-12T13:49:01.795Z,2.70
2017-12-12T13:50:06.987Z,3.00
2017-12-12T13:51:11.338Z,3.67
2017-12-12T13:52:16.539Z,2.90
2017-12-12T13:53:20.833Z,4.57
2017-12-12T13:54:26.283Z,4.40
2017-12-12T13:55:30.824Z,4.87
2017-12-12T13:56:35.200Z,3.10
2017-12-12T13:57:39.712Z,2.90
2017-12-12T13:58:43.858Z,4.57
2017-12-12T13:59:48.657Z,3.30